Time;durP1;ratioP1;P1;durP2;ratioP2;P2;SDS_P1;SDS_P2;PMS_P1;PMS_P2;Temp;Humidity;BMP_temperature;BMP_pressure;BME280_temperature;BME280_humidity;BME280_pressure;Samples;Min_cycle;Max_cycle;Signal;HPM_P1;HPM_P2
2021/11/16 00:01:09;;;;;;;44.17;31.63;;;5.90;99.90;;;;;;5013704;28;20199;-54
2021/11/16 00:03:35;;;;;;;33.60;25.83;;;5.80;99.90;;;;;;5014037;28;20534;-56
2021/11/16 00:06:00;;;;;;;38.53;28.23;;;5.90;99.90;;;;;;5014052;28;20204;-55
2021/11/16 00:08:26;;;;;;;39.87;29.37;;;6.00;99.90;;;;;;5014276;28;20185;-55
2021/11/16 00:10:52;;;;;;;35.80;26.77;;;6.00;99.90;;;;;;5014055;28;20206;-55
2021/11/16 00:13:18;;;;;;;35.27;26.60;;;5.80;99.90;;;;;;5012407;28;20550;-54
2021/11/16 00:15:45;;;;;;;36.33;26.90;;;5.80;99.90;;;;;;5013796;28;20216;-56
2021/11/16 00:18:11;;;;;;;35.37;26.40;;;5.90;99.90;;;;;;5013936;28;20196;-55
2021/11/16 00:20:43;;;;;;;34.70;25.27;;;5.90;99.90;;;;;;5013361;28;20195;-55
2021/11/16 00:23:20;;;;;;;38.77;27.73;;;6.00;99.90;;;;;;5013295;28;20184;-55
2021/11/16 00:25:50;;;;;;;38.07;26.93;;;5.90;99.90;;;;;;5013410;28;20246;-56
2021/11/16 00:28:16;;;;;;;37.00;26.70;;;5.80;99.90;;;;;;5013259;28;20196;-52
2021/11/16 00:30:42;;;;;;;30.43;23.27;;;5.80;99.90;;;;;;5013806;28;20215;-57
2021/11/16 00:33:09;;;;;;;33.33;21.47;;;5.60;99.90;;;;;;5013328;28;20546;-56
2021/11/16 00:35:38;;;;;;;25.57;22.30;;;5.40;99.90;;;;;;5014031;28;20188;-56
2021/11/16 00:38:09;;;;;;;25.33;21.97;;;5.30;99.90;;;;;;5013975;28;20208;-54
2021/11/16 00:40:36;;;;;;;48.17;21.17;;;5.30;99.90;;;;;;5013696;28;20234;-54
2021/11/16 00:43:04;;;;;;;26.53;18.90;;;5.30;99.90;;;;;;4976510;28;20177;-59
2021/11/16 00:45:30;;;;;;;19.67;16.70;;;5.30;99.90;;;;;;4974296;28;20225;-56
2021/11/16 00:47:56;;;;;;;20.87;17.33;;;5.20;99.90;;;;;;4974422;28;20291;-51
2021/11/16 00:50:22;;;;;;;36.57;16.83;;;5.30;99.90;;;;;;4974315;28;20626;-56
2021/11/16 00:52:47;;;;;;;19.50;17.40;;;5.10;99.90;;;;;;4973908;28;20236;-56
2021/11/16 00:55:14;;;;;;;19.27;17.17;;;4.90;99.90;;;;;;4974235;28;20205;-55
2021/11/16 00:57:39;;;;;;;21.30;18.10;;;4.80;99.90;;;;;;4974242;28;20210;-54
2021/11/16 01:00:08;;;;;;;21.10;17.90;;;4.80;99.90;;;;;;4973930;28;20189;-55
2021/11/16 01:02:34;;;;;;;18.17;16.23;;;4.70;99.90;;;;;;4973433;28;20174;-54
2021/11/16 01:04:59;;;;;;;20.30;17.50;;;4.60;99.90;;;;;;4974212;28;20225;-55
2021/11/16 01:07:25;;;;;;;24.90;16.60;;;4.50;99.90;;;;;;4974031;28;20644;-57
2021/11/16 01:09:50;;;;;;;16.70;14.90;;;4.60;99.90;;;;;;4973658;28;20174;-54
2021/11/16 01:12:17;;;;;;;16.53;14.83;;;4.50;99.90;;;;;;4973820;28;20177;-58
2021/11/16 01:14:43;;;;;;;16.27;14.57;;;4.50;99.90;;;;;;4973906;28;20197;-57
2021/11/16 01:17:09;;;;;;;17.13;15.30;;;4.40;99.90;;;;;;4973878;28;20220;-54
2021/11/16 01:19:35;;;;;;;19.70;15.83;;;4.50;99.90;;;;;;4973942;28;20169;-56
2021/11/16 01:22:02;;;;;;;46.57;16.13;;;4.50;99.90;;;;;;4973696;28;20253;-59
2021/11/16 01:24:28;;;;;;;28.63;16.10;;;4.60;99.90;;;;;;4973265;28;21021;-52
2021/11/16 01:26:53;;;;;;;16.67;14.43;;;4.70;99.90;;;;;;4973746;28;20185;-56
2021/11/16 01:29:20;;;;;;;16.17;14.10;;;4.90;99.90;;;;;;4973234;28;20288;-56
2021/11/16 01:31:48;;;;;;;14.73;13.13;;;4.90;99.90;;;;;;4973967;28;20186;-57
2021/11/16 01:34:13;;;;;;;33.03;14.77;;;4.80;99.90;;;;;;4973594;28;20241;-54
2021/11/16 01:36:39;;;;;;;16.43;13.93;;;4.70;99.90;;;;;;4973697;28;20186;-58
2021/11/16 01:39:06;;;;;;;16.33;13.93;;;4.60;99.90;;;;;;5021403;23;20284;-63
2021/11/16 01:41:32;;;;;;;16.10;14.00;;;4.60;99.90;;;;;;5014786;28;20180;-64
2021/11/16 01:44:00;;;;;;;14.37;12.87;;;4.60;99.90;;;;;;5005181;28;20185;-64
2021/11/16 01:46:25;;;;;;;17.30;12.63;;;4.70;99.90;;;;;;5003954;28;20184;-64
2021/11/16 01:48:54;;;;;;;18.87;13.47;;;4.70;99.90;;;;;;5002829;28;20185;-62
2021/11/16 01:51:22;;;;;;;16.10;13.63;;;4.70;99.90;;;;;;5003020;28;20176;-63
2021/11/16 01:53:51;;;;;;;14.10;12.47;;;4.70;99.90;;;;;;5003784;28;20177;-60
2021/11/16 01:56:17;;;;;;;16.47;14.43;;;4.40;99.90;;;;;;5003670;28;20711;-65
2021/11/16 01:58:43;;;;;;;18.97;14.87;;;4.10;99.90;;;;;;5003337;28;20248;-64
2021/11/16 02:01:09;;;;;;;16.53;14.73;;;3.90;99.90;;;;;;5003983;28;20165;-64
2021/11/16 02:03:35;;;;;;;21.77;17.67;;;3.80;99.90;;;;;;5003927;28;20180;-63
2021/11/16 02:06:17;;;;;;;22.50;16.97;;;3.80;99.90;;;;;;5003656;28;20177;-64
2021/11/16 02:08:43;;;;;;;19.70;17.10;;;3.80;99.90;;;;;;5003599;28;20243;-62
2021/11/16 02:11:09;;;;;;;17.83;15.80;;;3.90;99.90;;;;;;5004671;28;20177;-63
2021/11/16 02:13:34;;;;;;;17.67;15.70;;;4.00;99.90;;;;;;5004091;28;20196;-63
2021/11/16 02:16:01;;;;;;;17.37;15.50;;;4.10;99.90;;;;;;5005653;28;20185;-64
2021/11/16 02:18:26;;;;;;;17.00;15.20;;;4.10;99.90;;;;;;5004326;28;20687;-64
2021/11/16 02:20:53;;;;;;;26.73;14.67;;;4.30;99.90;;;;;;5004229;28;20173;-64
2021/11/16 02:23:19;;;;;;;13.93;12.43;;;4.40;99.90;;;;;;5003943;28;20248;-62
2021/11/16 02:25:48;;;;;;;12.23;10.90;;;4.40;99.90;;;;;;5006245;28;20268;-61
2021/11/16 02:28:15;;;;;;;13.70;12.10;;;4.50;99.90;;;;;;5006969;28;20197;-65
2021/11/16 02:30:40;;;;;;;13.80;11.70;;;4.50;99.90;;;;;;5008395;28;20177;-64
2021/11/16 02:33:06;;;;;;;17.17;13.83;;;4.60;99.90;;;;;;5007154;28;20232;-62
2021/11/16 02:35:32;;;;;;;15.60;13.20;;;4.70;99.90;;;;;;5001605;28;20179;-63
2021/11/16 02:37:58;;;;;;;16.27;14.07;;;4.70;99.90;;;;;;5001017;28;20217;-65
2021/11/16 02:40:24;;;;;;;17.87;15.17;;;4.80;99.90;;;;;;5000805;28;20237;-65
2021/11/16 02:42:50;;;;;;;26.97;19.10;;;4.90;99.90;;;;;;4999676;28;20260;-63
2021/11/16 02:45:18;;;;;;;22.57;17.03;;;5.00;99.90;;;;;;5001733;28;20193;-61
2021/11/16 02:47:45;;;;;;;22.57;17.10;;;5.10;99.90;;;;;;5003171;28;20205;-65
2021/11/16 02:50:10;;;;;;;14.73;12.67;;;5.20;99.90;;;;;;5001770;28;20173;-62
2021/11/16 02:52:37;;;;;;;12.67;11.37;;;5.00;99.90;;;;;;5002130;28;20226;-63
2021/11/16 02:55:05;;;;;;;12.80;11.40;;;4.80;99.90;;;;;;5002536;28;20173;-63
2021/11/16 02:57:31;;;;;;;12.90;11.17;;;4.80;99.90;;;;;;5002271;28;20263;-64
2021/11/16 02:59:56;;;;;;;13.70;11.97;;;4.90;99.90;;;;;;5001762;28;20200;-63
2021/11/16 03:02:22;;;;;;;16.57;13.77;;;4.90;99.90;;;;;;5002029;28;20658;-65
2021/11/16 03:04:48;;;;;;;19.40;15.30;;;4.70;99.90;;;;;;5002883;28;20636;-66
2021/11/16 03:07:31;;;;;;;20.10;15.80;;;5.80;99.90;;;;;;5003432;28;20188;-65
2021/11/16 03:09:57;;;;;;;13.17;11.57;;;4.80;99.90;;;;;;5004385;28;20201;-64
2021/11/16 03:12:28;;;;;;;13.87;12.37;;;4.60;99.90;;;;;;5002935;28;20185;-64
2021/11/16 03:14:54;;;;;;;12.80;11.47;;;4.60;99.90;;;;;;5002022;28;20183;-64
2021/11/16 03:17:21;;;;;;;13.47;11.53;;;4.50;99.90;;;;;;4998911;28;20205;-64
2021/11/16 03:19:47;;;;;;;12.47;11.17;;;4.50;99.90;;;;;;4999357;28;20188;-64
2021/11/16 03:22:14;;;;;;;14.50;11.60;;;4.30;99.90;;;;;;4999412;28;20173;-62
2021/11/16 03:24:40;;;;;;;11.93;10.67;;;4.20;99.90;;;;;;4997255;28;20174;-61
2021/11/16 03:27:11;;;;;;;13.63;11.83;;;4.20;99.90;;;;;;4998037;28;20800;-63
2021/11/16 03:29:45;;;;;;;13.70;12.30;;;4.10;99.90;;;;;;4997909;28;20845;-64
2021/11/16 03:32:13;;;;;;;14.87;12.97;;;4.00;99.90;;;;;;4997735;28;20185;-64
2021/11/16 03:34:45;;;;;;;12.90;11.53;;;4.10;99.90;;;;;;4996857;28;20830;-64
2021/11/16 03:37:11;;;;;;;33.23;15.67;;;4.30;99.90;;;;;;4997640;28;20475;-64
2021/11/16 03:39:38;;;;;;;33.87;15.33;;;4.30;99.90;;;;;;4996547;28;20197;-60
2021/11/16 03:42:05;;;;;;;15.67;13.67;;;5.00;99.90;;;;;;4997581;28;20200;-61
2021/11/16 03:44:32;;;;;;;84.87;17.97;;;3.70;99.90;;;;;;4998015;28;20208;-64
2021/11/16 03:46:58;;;;;;;15.83;13.53;;;3.70;99.90;;;;;;4998241;28;20177;-61
2021/11/16 03:49:24;;;;;;;17.77;15.40;;;3.80;99.90;;;;;;4995764;28;20212;-62
2021/11/16 03:51:49;;;;;;;18.80;15.10;;;4.00;99.90;;;;;;4995641;28;20176;-65
2021/11/16 03:54:15;;;;;;;31.80;21.70;;;4.20;99.90;;;;;;4997872;28;20521;-63
2021/11/16 03:56:41;;;;;;;27.70;22.07;;;4.20;99.90;;;;;;4996218;28;20229;-63
2021/11/16 03:59:07;;;;;;;28.33;21.30;;;4.30;99.90;;;;;;4998009;28;20195;-61
2021/11/16 04:01:34;;;;;;;33.00;23.43;;;4.40;99.90;;;;;;4997426;28;20252;-62
2021/11/16 04:04:01;;;;;;;33.47;23.67;;;4.60;99.90;;;;;;4996902;28;20181;-63
2021/11/16 04:06:27;;;;;;;36.03;25.90;;;4.70;99.90;;;;;;4996227;28;20177;-63
2021/11/16 04:08:52;;;;;;;32.53;24.53;;;4.80;99.90;;;;;;4997179;28;20192;-62
2021/11/16 04:11:18;;;;;;;34.10;25.13;;;4.90;99.90;;;;;;4996614;28;20672;-64
2021/11/16 04:13:44;;;;;;;32.63;23.77;;;5.00;99.90;;;;;;4996431;28;20345;-64
2021/11/16 04:16:11;;;;;;;33.50;24.47;;;4.90;99.90;;;;;;4997081;28;20173;-63
2021/11/16 04:18:37;;;;;;;30.87;23.77;;;4.90;99.90;;;;;;4997241;28;20205;-60
2021/11/16 04:21:03;;;;;;;25.67;19.50;;;4.70;99.90;;;;;;4997107;28;20232;-63
2021/11/16 04:23:29;;;;;;;25.40;17.63;;;4.50;99.90;;;;;;4996778;28;20256;-64
2021/11/16 04:25:56;;;;;;;26.03;17.63;;;4.30;99.90;;;;;;4997013;28;20248;-61
2021/11/16 04:28:23;;;;;;;22.53;17.70;;;4.40;99.90;;;;;;4997263;28;20275;-65
2021/11/16 04:30:50;;;;;;;22.23;17.17;;;4.60;99.90;;;;;;4996554;28;20235;-63
2021/11/16 04:33:18;;;;;;;22.13;17.70;;;4.80;99.90;;;;;;4997213;28;20185;-64
2021/11/16 04:35:44;;;;;;;22.07;17.10;;;4.90;99.90;;;;;;4997666;28;20237;-64
2021/11/16 04:38:13;;;;;;;21.87;17.50;;;4.90;99.90;;;;;;4999976;28;20287;-63
2021/11/16 04:40:41;;;;;;;54.00;18.93;;;4.90;99.90;;;;;;5000857;28;20176;-61
2021/11/16 04:43:15;;;;;;;25.67;20.20;;;4.90;99.90;;;;;;5001159;28;20197;-65
2021/11/16 04:45:41;;;;;;;23.87;18.73;;;4.80;99.90;;;;;;5001367;28;20173;-60
2021/11/16 04:48:19;;;;;;;20.57;16.63;;;4.70;99.90;;;;;;5001505;28;20260;-63
2021/11/16 05:04:16;;;;;;;17.20;15.33;;;5.00;99.90;;;;;;5002642;28;20253;-66
2021/11/16 05:06:43;;;;;;;16.90;14.47;;;4.30;99.90;;;;;;5002634;28;20173;-65
2021/11/16 05:09:08;;;;;;;17.00;14.67;;;4.30;99.90;;;;;;5001481;28;20189;-60
2021/11/16 05:11:34;;;;;;;17.90;15.33;;;4.40;99.90;;;;;;5001240;28;20189;-67
2021/11/16 05:14:00;;;;;;;16.27;13.63;;;4.50;99.90;;;;;;5000255;28;20232;-65
2021/11/16 05:16:26;;;;;;;17.70;14.43;;;4.60;99.90;;;;;;5002157;28;20169;-64
2021/11/16 05:18:52;;;;;;;19.07;15.73;;;4.70;99.90;;;;;;5002145;28;20205;-62
2021/11/16 05:21:18;;;;;;;22.67;17.23;;;4.80;99.90;;;;;;5002750;28;20184;-64
2021/11/16 05:23:56;;;;;;;27.93;20.10;;;4.80;99.90;;;;;;5002113;28;20302;-62
2021/11/16 05:26:23;;;;;;;24.97;19.90;;;4.90;99.90;;;;;;5002195;28;20199;-64
2021/11/16 05:28:50;;;;;;;23.23;18.30;;;5.00;99.90;;;;;;5002255;28;20201;-63
2021/11/16 05:31:16;;;;;;;19.07;16.07;;;5.00;99.90;;;;;;5001984;28;20200;-59
2021/11/16 05:33:43;;;;;;;20.10;15.93;;;5.00;99.90;;;;;;5002128;28;20246;-62
2021/11/16 05:36:09;;;;;;;21.37;16.93;;;5.10;99.90;;;;;;5003374;28;20180;-65
2021/11/16 05:38:38;;;;;;;24.33;18.80;;;5.20;99.90;;;;;;5002127;28;20216;-65
2021/11/16 05:41:04;;;;;;;22.57;17.30;;;5.30;99.90;;;;;;5003567;28;20209;-62
2021/11/16 05:43:30;;;;;;;22.67;17.40;;;5.30;99.90;;;;;;5002570;28;20249;-64
2021/11/16 05:45:57;;;;;;;19.90;15.37;;;5.40;99.90;;;;;;5003894;28;20200;-63
2021/11/16 05:48:24;;;;;;;15.60;13.37;;;5.30;99.90;;;;;;5003267;28;20201;-62
2021/11/16 05:50:51;;;;;;;14.87;13.00;;;4.80;99.90;;;;;;5003318;28;20173;-64
2021/11/16 05:53:17;;;;;;;16.57;13.73;;;4.60;99.90;;;;;;5003263;28;20184;-64
2021/11/16 05:55:44;;;;;;;15.40;13.17;;;4.60;99.90;;;;;;5002723;28;20173;-64
2021/11/16 05:58:16;;;;;;;15.27;13.33;;;4.60;99.90;;;;;;5003777;28;20213;-63
2021/11/16 06:00:42;;;;;;;15.23;13.63;;;4.60;99.90;;;;;;5003545;28;20177;-63
2021/11/16 06:03:09;;;;;;;15.97;13.70;;;4.70;99.90;;;;;;5003511;28;20644;-62
2021/11/16 06:05:35;;;;;;;17.10;14.77;;;4.70;99.90;;;;;;5004462;28;20204;-62
2021/11/16 06:08:00;;;;;;;24.53;15.20;;;4.80;99.90;;;;;;5003508;28;20198;-64
2021/11/16 06:10:26;;;;;;;20.13;16.30;;;4.80;99.90;;;;;;5004493;28;20171;-64
2021/11/16 06:12:51;;;;;;;20.70;16.43;;;4.80;99.90;;;;;;5004638;28;20251;-65
2021/11/16 06:15:17;;;;;;;20.73;16.40;;;4.90;99.90;;;;;;5002545;28;20231;-64
2021/11/16 06:17:44;;;;;;;23.40;16.77;;;5.00;99.90;;;;;;5001356;28;20216;-62
2021/11/16 06:20:15;;;;;;;21.77;16.97;;;5.00;99.90;;;;;;5001206;28;20176;-62
2021/11/16 06:22:41;;;;;;;21.90;16.03;;;5.10;99.90;;;;;;4999950;28;20659;-63
2021/11/16 06:25:07;;;;;;;21.67;16.07;;;5.10;99.90;;;;;;4999631;28;20181;-59
2021/11/16 06:27:32;;;;;;;21.40;16.80;;;6.20;99.90;;;;;;4999300;28;20181;-61
2021/11/16 06:29:58;;;;;;;22.47;16.73;;;5.30;99.90;;;;;;4999374;28;20169;-63
2021/11/16 06:32:24;;;;;;;21.53;16.70;;;5.30;99.90;;;;;;5001300;28;20173;-64
2021/11/16 06:34:49;;;;;;;18.77;15.80;;;5.30;99.90;;;;;;5011396;28;20188;-64
2021/11/16 06:37:15;;;;;;;17.77;15.27;;;5.20;99.90;;;;;;5013829;28;20594;-62
2021/11/16 06:39:41;;;;;;;19.27;14.83;;;5.10;99.90;;;;;;5019605;28;20275;-60
2021/11/16 06:42:07;;;;;;;15.50;12.43;;;5.10;99.90;;;;;;5020880;28;20181;-60
2021/11/16 06:44:32;;;;;;;14.47;12.97;;;5.10;99.90;;;;;;5039130;28;20642;-64
2021/11/16 06:46:58;;;;;;;17.67;15.23;;;5.10;99.90;;;;;;5039774;28;20561;-63
2021/11/16 06:49:24;;;;;;;16.53;13.87;;;5.10;99.90;;;;;;5040959;28;20203;-64
2021/11/16 06:51:52;;;;;;;14.43;12.83;;;5.20;99.90;;;;;;5028026;28;20643;-61
2021/11/16 06:54:21;;;;;;;14.97;12.47;;;5.20;99.90;;;;;;5016723;28;20203;-61
2021/11/16 06:56:51;;;;;;;16.37;12.87;;;5.30;99.90;;;;;;5020419;28;20238;-61
2021/11/16 06:59:24;;;;;;;14.33;12.57;;;5.40;99.90;;;;;;5013275;28;20635;-62
2021/11/16 07:01:51;;;;;;;15.37;13.20;;;5.50;99.90;;;;;;5020612;28;20643;-66
2021/11/16 07:04:17;;;;;;;16.33;13.47;;;5.60;99.90;;;;;;5021576;28;20574;-64
2021/11/16 07:06:46;;;;;;;17.63;14.63;;;5.70;99.90;;;;;;5007367;28;20203;-65
2021/11/16 07:09:14;;;;;;;20.03;15.47;;;5.80;99.90;;;;;;5011976;28;20196;-63
2021/11/16 07:11:54;;;;;;;22.07;16.83;;;5.70;99.90;;;;;;5000028;28;20177;-67
2021/11/16 07:14:26;;;;;;;17.77;15.13;;;5.60;99.90;;;;;;5000262;28;20177;-61
2021/11/16 07:16:54;;;;;;;17.87;14.40;;;5.60;99.90;;;;;;5012909;28;20168;-63
2021/11/16 07:19:29;;;;;;;18.33;14.50;;;5.70;99.90;;;;;;5016544;28;20192;-60
2021/11/16 07:21:55;;;;;;;17.47;14.23;;;5.80;99.90;;;;;;5000893;28;20176;-62
2021/11/16 07:24:26;;;;;;;17.20;14.27;;;5.90;99.90;;;;;;5018054;28;20175;-62
2021/11/16 07:27:01;;;;;;;17.00;14.70;;;6.00;99.90;;;;;;5014743;28;20222;-61
2021/11/16 07:29:49;;;;;;;16.90;14.13;;;6.10;99.90;;;;;;5018125;28;20231;-61
2021/11/16 07:32:27;;;;;;;19.03;15.40;;;6.10;99.90;;;;;;5015192;28;20196;-63
2021/11/16 07:35:02;;;;;;;16.47;13.57;;;5.80;99.90;;;;;;5016041;28;20176;-63
2021/11/16 07:37:33;;;;;;;17.03;14.77;;;5.90;99.90;;;;;;5018854;28;20207;-62
2021/11/16 07:40:01;;;;;;;17.73;13.53;;;6.00;99.90;;;;;;5019146;28;20172;-63
2021/11/16 07:42:47;;;;;;;19.50;14.73;;;6.10;99.90;;;;;;5017777;28;20232;-64
2021/11/16 07:45:17;;;;;;;16.40;13.90;;;6.20;99.90;;;;;;5018430;28;20230;-64
2021/11/16 07:47:46;;;;;;;16.60;14.50;;;6.40;99.90;;;;;;5018168;28;20204;-60
2021/11/16 07:50:37;;;;;;;19.27;16.07;;;6.50;99.90;;;;;;5018052;28;20271;-59
2021/11/16 07:53:11;;;;;;;17.53;14.93;;;6.50;99.90;;;;;;5016682;28;20198;-64
2021/11/16 07:55:39;;;;;;;18.07;15.40;;;6.50;99.90;;;;;;5019033;28;20180;-61
2021/11/16 07:58:07;;;;;;;18.77;15.40;;;6.50;99.90;;;;;;5018621;28;20219;-63
2021/11/16 08:00:35;;;;;;;20.33;14.50;;;6.70;99.90;;;;;;5018670;28;20176;-60
2021/11/16 08:03:13;;;;;;;17.10;14.90;;;6.70;99.90;;;;;;5018682;28;20189;-62
2021/11/16 08:11:05;;;;;;;18.17;15.17;;;6.80;99.90;;;;;;5020332;28;20183;-62
2021/11/16 08:13:33;;;;;;;18.97;16.17;;;6.90;99.90;;;;;;5025579;28;20745;-61
2021/11/16 08:16:07;;;;;;;18.83;16.10;;;7.00;99.90;;;;;;5026696;28;20184;-66
2021/11/16 08:18:55;;;;;;;20.17;15.77;;;7.10;99.90;;;;;;5025784;28;20302;-60
2021/11/16 08:21:21;;;;;;;22.83;19.07;;;7.10;99.90;;;;;;5022379;28;20188;-59
2021/11/16 08:24:00;;;;;;;23.43;18.60;;;7.20;99.90;;;;;;5021403;28;20212;-59
2021/11/16 08:26:50;;;;;;;20.97;17.37;;;7.20;99.90;;;;;;5022036;28;20211;-61
2021/11/16 08:29:27;;;;;;;21.40;17.90;;;7.10;99.90;;;;;;5021558;28;20254;-60
2021/11/16 08:32:07;;;;;;;22.33;18.20;;;7.20;99.90;;;;;;5020532;28;20654;-59
2021/11/16 08:34:35;;;;;;;22.27;18.20;;;7.30;99.90;;;;;;5019110;28;20180;-60
2021/11/16 08:37:06;;;;;;;22.07;17.97;;;7.30;99.90;;;;;;5021981;28;20200;-59
2021/11/16 08:39:39;;;;;;;20.90;16.80;;;7.40;99.90;;;;;;5021497;28;20212;-60
2021/11/16 08:42:09;;;;;;;17.47;15.23;;;7.50;99.90;;;;;;5020405;28;20176;-60
2021/11/16 08:44:47;;;;;;;19.47;16.17;;;7.40;99.90;;;;;;5020226;28;20180;-62
2021/11/16 08:47:15;;;;;;;19.37;16.00;;;7.10;99.90;;;;;;5021007;28;20244;-62
2021/11/16 08:49:42;;;;;;;20.23;15.53;;;7.00;99.90;;;;;;5021185;28;20192;-63
2021/11/16 08:52:16;;;;;;;20.53;16.60;;;7.00;99.90;;;;;;5011263;23;20232;-53
2021/11/16 08:54:54;;;;;;;20.60;16.67;;;7.10;99.90;;;;;;4990870;28;20230;-48
2021/11/16 08:57:21;;;;;;;25.30;18.73;;;7.30;99.90;;;;;;4992885;28;20757;-52
2021/11/16 08:59:47;;;;;;;27.33;20.03;;;7.40;99.90;;;;;;4992159;28;20180;-54
2021/11/16 09:02:16;;;;;;;30.87;21.03;;;7.50;99.90;;;;;;4976058;28;20281;-51
2021/11/16 09:04:42;;;;;;;36.87;21.77;;;7.60;99.90;;;;;;4972981;28;20260;-47
2021/11/16 09:07:21;;;;;;;33.47;22.10;;;7.70;99.90;;;;;;4974282;28;20186;-48
2021/11/16 09:10:13;;;;;;;31.77;21.00;;;7.90;99.90;;;;;;4960174;28;20194;-51
2021/11/16 09:12:49;;;;;;;32.53;22.30;;;8.20;99.90;;;;;;4952485;28;20553;-49
2021/11/16 09:15:28;;;;;;;29.93;21.93;;;8.30;99.90;;;;;;4954573;28;20245;-48
2021/11/16 09:18:11;;;;;;;29.40;22.87;;;8.50;99.90;;;;;;4954484;28;20625;-47
2021/11/16 09:20:38;;;;;;;36.60;25.13;;;8.50;99.90;;;;;;4954627;28;20195;-51
2021/11/16 09:23:04;;;;;;;39.80;26.07;;;8.40;99.90;;;;;;4953355;28;20182;-48
2021/11/16 09:25:37;;;;;;;44.10;29.40;;;8.30;99.90;;;;;;4962689;28;20183;-49
2021/11/16 09:28:25;;;;;;;45.63;27.10;;;8.30;99.90;;;;;;4954120;28;20188;-50
2021/11/16 09:30:52;;;;;;;39.13;25.33;;;8.20;99.90;;;;;;4954151;28;20195;-51
2021/11/16 09:33:22;;;;;;;40.73;25.23;;;8.00;99.90;;;;;;4954185;28;20198;-52
2021/11/16 09:35:54;;;;;;;33.87;23.50;;;8.00;99.90;;;;;;4954358;28;20241;-47
2021/11/16 09:38:44;;;;;;;29.97;21.03;;;8.10;99.90;;;;;;4954230;28;20210;-53
2021/11/16 09:41:39;;;;;;;34.60;22.67;;;8.10;99.90;;;;;;4954180;28;20262;-51
2021/11/16 09:44:13;;;;;;;38.93;23.63;;;8.30;99.90;;;;;;4953741;28;20557;-48
2021/11/16 09:46:54;;;;;;;38.67;24.63;;;8.40;99.90;;;;;;4969049;28;20173;-53
2021/11/16 09:49:33;;;;;;;43.17;26.87;;;8.60;99.90;;;;;;4973596;28;20173;-51
2021/11/16 09:52:13;;;;;;;43.37;26.60;;;8.70;99.90;;;;;;4979852;28;20270;-48
2021/11/16 09:54:51;;;;;;;39.90;26.17;;;8.80;99.90;;;;;;4992726;28;20188;-50
2021/11/16 09:57:18;;;;;;;42.23;26.80;;;8.90;99.90;;;;;;4992279;28;20200;-51
2021/11/16 09:59:46;;;;;;;43.83;27.47;;;9.00;99.90;;;;;;4984194;28;20189;-49
2021/11/16 10:02:27;;;;;;;38.40;24.70;;;9.00;99.90;;;;;;4972445;28;20201;-50
2021/11/16 10:04:58;;;;;;;32.43;23.00;;;9.00;99.90;;;;;;4992330;28;20188;-49
2021/11/16 10:07:24;;;;;;;33.13;23.63;;;8.60;99.90;;;;;;4992162;28;20266;-49
2021/11/16 10:09:50;;;;;;;28.67;21.60;;;8.20;99.90;;;;;;4992465;28;20269;-54
2021/11/16 10:12:18;;;;;;;34.67;23.53;;;8.00;99.90;;;;;;4992007;28;20197;-50
2021/11/16 10:14:44;;;;;;;34.47;23.43;;;8.10;99.90;;;;;;4986250;28;20184;-51
2021/11/16 10:17:10;;;;;;;38.33;23.73;;;8.10;99.90;;;;;;4973025;28;20265;-48
2021/11/16 10:19:36;;;;;;;37.97;23.60;;;8.10;99.90;;;;;;4972704;28;20178;-48
2021/11/16 10:22:09;;;;;;;39.77;25.30;;;8.10;99.90;;;;;;4972331;28;20194;-49
2021/11/16 10:24:36;;;;;;;32.27;22.47;;;8.10;99.90;;;;;;4972719;28;20596;-49
2021/11/16 10:27:23;;;;;;;34.23;22.97;;;8.10;99.90;;;;;;4972774;28;20174;-48
2021/11/16 10:30:26;;;;;;;33.97;23.57;;;8.10;99.90;;;;;;4972702;28;20236;-50
2021/11/16 10:33:18;;;;;;;30.90;21.40;;;8.00;99.90;;;;;;4931038;29;20910;-49
2021/11/16 10:35:56;;;;;;;33.43;22.90;;;7.80;99.90;;;;;;4930859;29;20662;-51
2021/11/16 10:38:32;;;;;;;34.37;24.00;;;7.70;99.90;;;;;;4932118;29;20218;-46
2021/11/16 10:41:02;;;;;;;35.13;24.23;;;7.70;99.90;;;;;;4931661;29;20361;-50
2021/11/16 10:43:49;;;;;;;32.93;23.20;;;7.90;99.90;;;;;;4923130;29;20761;-48
2021/11/16 10:46:18;;;;;;;33.70;23.57;;;8.00;99.90;;;;;;4912582;29;20191;-48
2021/11/16 10:48:44;;;;;;;32.70;23.13;;;8.10;99.90;;;;;;4912991;29;20182;-47
2021/11/16 10:51:12;;;;;;;34.77;23.10;;;8.40;99.90;;;;;;4912191;29;20944;-55
2021/11/16 10:53:45;;;;;;;31.53;23.20;;;8.60;99.90;;;;;;4925921;29;20290;-48
2021/11/16 10:56:14;;;;;;;33.37;24.87;;;8.80;99.90;;;;;;4919253;29;20194;-53
2021/11/16 10:58:41;;;;;;;32.03;23.67;;;8.90;99.90;;;;;;4918497;29;20317;-46
2021/11/16 11:01:22;;;;;;;34.70;25.63;;;9.00;99.90;;;;;;4922224;29;20222;-53
2021/11/16 11:03:51;;;;;;;36.03;25.20;;;9.00;99.90;;;;;;4918664;29;20235;-51
2021/11/16 11:06:20;;;;;;;33.10;24.77;;;9.00;99.90;;;;;;4939853;28;20202;-51
2021/11/16 11:08:53;;;;;;;33.87;24.67;;;9.00;99.90;;;;;;4974564;28;20288;-47
2021/11/16 11:11:28;;;;;;;32.90;24.27;;;9.10;99.90;;;;;;4980151;28;20217;-50
2021/11/16 11:14:02;;;;;;;33.27;24.60;;;9.10;99.90;;;;;;4982223;28;20175;-50
2021/11/16 11:16:29;;;;;;;31.93;23.83;;;9.20;99.90;;;;;;4973492;28;20177;-47
2021/11/16 11:18:55;;;;;;;33.37;24.57;;;9.30;99.90;;;;;;4977725;28;20220;-52
2021/11/16 11:21:28;;;;;;;33.03;23.83;;;9.40;99.90;;;;;;4971193;28;20193;-47
2021/11/16 11:23:59;;;;;;;32.00;24.67;;;9.50;99.90;;;;;;4971121;28;20172;-47
2021/11/16 11:29:35;;;;;;;30.40;23.27;;;9.60;99.90;;;;;;4959914;28;20192;-51
2021/11/16 11:32:03;;;;;;;27.50;22.87;;;9.50;99.90;;;;;;4970207;28;20759;-53
2021/11/16 11:34:38;;;;;;;32.10;24.03;;;9.60;99.90;;;;;;4971667;28;20674;-49
2021/11/16 11:37:07;;;;;;;30.10;23.80;;;9.70;99.90;;;;;;4971650;28;20189;-48
2021/11/16 11:39:32;;;;;;;33.57;24.93;;;9.80;99.90;;;;;;4971695;28;20178;-47
2021/11/16 11:41:59;;;;;;;30.97;22.37;;;9.70;99.90;;;;;;4971288;28;20631;-48
2021/11/16 11:44:27;;;;;;;30.53;22.53;;;9.60;99.90;;;;;;4971518;28;20597;-49
2021/11/16 11:46:59;;;;;;;30.97;24.07;;;9.60;99.90;;;;;;4974777;28;20552;-47
2021/11/16 11:49:27;;;;;;;30.13;23.93;;;9.60;99.90;;;;;;4975450;28;20182;-51
2021/11/16 11:51:55;;;;;;;29.40;22.90;;;9.40;99.90;;;;;;4974535;28;20229;-50
2021/11/16 11:54:21;;;;;;;32.13;23.87;;;9.20;99.90;;;;;;4975196;28;20181;-52
2021/11/16 11:56:50;;;;;;;32.07;24.17;;;9.00;99.90;;;;;;4975351;28;20269;-52
2021/11/16 11:59:19;;;;;;;33.83;24.37;;;8.80;99.90;;;;;;4975503;28;20194;-51
2021/11/16 12:01:46;;;;;;;33.20;24.27;;;8.60;99.90;;;;;;4974865;28;20194;-48
2021/11/16 12:04:14;;;;;;;32.63;24.57;;;8.40;99.90;;;;;;4975237;28;20166;-52
2021/11/16 12:06:40;;;;;;;35.97;25.70;;;8.40;99.90;;;;;;4974732;28;20174;-48
2021/11/16 12:09:08;;;;;;;31.73;23.60;;;8.40;99.90;;;;;;4975225;28;20181;-52
2021/11/16 12:11:33;;;;;;;35.37;24.57;;;8.30;99.90;;;;;;4974995;28;20212;-53
2021/11/16 12:14:06;;;;;;;31.50;25.27;;;8.40;99.90;;;;;;4975122;28;20178;-51
2021/11/16 12:16:45;;;;;;;35.80;24.73;;;8.30;99.90;;;;;;4974997;28;20604;-56
2021/11/16 12:19:12;;;;;;;32.17;24.77;;;8.30;99.90;;;;;;4959589;28;20536;-54
2021/11/16 12:21:41;;;;;;;32.27;24.93;;;8.40;99.90;;;;;;4956632;28;20198;-50
2021/11/16 12:24:30;;;;;;;31.83;24.73;;;8.40;99.90;;;;;;4955485;28;20705;-48
2021/11/16 12:27:02;;;;;;;30.33;23.70;;;8.50;99.90;;;;;;4962337;28;20173;-49
2021/11/16 12:29:42;;;;;;;33.07;24.03;;;8.60;99.90;;;;;;4974976;28;20178;-55
2021/11/16 12:32:31;;;;;;;32.70;24.87;;;8.80;99.90;;;;;;4977246;28;20754;-50
2021/11/16 12:35:09;;;;;;;30.47;23.63;;;8.90;99.90;;;;;;4965451;28;20201;-53
2021/11/16 12:38:04;;;;;;;29.40;23.13;;;8.90;99.90;;;;;;4955854;28;20751;-51
2021/11/16 12:40:37;;;;;;;33.83;22.83;;;9.10;99.90;;;;;;4953092;28;20210;-56
2021/11/16 12:43:15;;;;;;;32.40;23.80;;;9.30;99.90;;;;;;4955711;28;20174;-56
2021/11/16 12:45:58;;;;;;;29.43;23.00;;;9.40;99.90;;;;;;4968774;28;20177;-52
2021/11/16 12:48:56;;;;;;;29.70;23.17;;;9.50;99.90;;;;;;4973922;28;20186;-53
2021/11/16 12:51:24;;;;;;;29.43;24.00;;;9.70;99.90;;;;;;4895299;29;20240;-52
2021/11/16 12:53:56;;;;;;;31.27;23.30;;;9.70;99.90;;;;;;4895956;29;20756;-53
2021/11/16 12:56:47;;;;;;;31.63;23.97;;;9.60;99.90;;;;;;4895619;29;20732;-48
2021/11/16 12:59:16;;;;;;;33.37;25.13;;;9.60;99.90;;;;;;4895419;29;20212;-49
2021/11/16 13:01:56;;;;;;;33.33;24.77;;;9.60;99.90;;;;;;4894695;29;20212;-46
2021/11/16 13:04:37;;;;;;;33.37;24.47;;;9.50;99.90;;;;;;4895830;29;20902;-49
2021/11/16 13:07:25;;;;;;;30.50;23.40;;;9.50;99.90;;;;;;4897726;29;20256;-54
2021/11/16 13:10:12;;;;;;;31.80;23.83;;;9.60;99.90;;;;;;4896103;29;20173;-54
2021/11/16 13:12:47;;;;;;;34.20;25.20;;;9.70;99.90;;;;;;4895061;29;20525;-49